Time;durP1;ratioP1;P1;durP2;ratioP2;P2;SDS_P1;SDS_P2;PMS_P1;PMS_P2;Temp;Humidity;BMP_temperature;BMP_pressure;BME280_temperature;BME280_humidity;BME280_pressure;Samples;Min_cycle;Max_cycle;Signal;HPM_P1;HPM_P2
2022/08/12 00:43:16;;;;;;;;;17.33;16.00;;;;;25.23;44.82;101101.59;5022340;28;45876;-82
2022/08/12 00:48:28;;;;;;;;;19.67;13.67;;;;;25.12;45.16;101096.09;5004937;28;45716;-79
2022/08/12 00:50:57;;;;;;;;;17.67;17.00;;;;;25.15;44.81;101097.44;5014404;28;45732;-79
2022/08/12 00:53:22;;;;;;;;;13.67;13.67;;;;;25.14;44.67;101095.78;5016007;28;45779;-81
2022/08/12 00:55:50;;;;;;;;;16.33;15.33;;;;;25.04;44.76;101091.13;5015616;28;45825;-80
2022/08/12 00:58:25;;;;;;;;;16.33;15.33;;;;;25.01;44.75;101078.50;5034373;28;45427;-80
2022/08/12 01:00:51;;;;;;;;;17.33;16.33;;;;;24.78;45.08;101054.94;5033909;28;45453;-79
2022/08/12 01:03:20;;;;;;;;;18.00;16.00;;;;;24.98;45.11;101095.94;5028917;28;45387;-80
2022/08/12 01:11:33;;;;;;;;;18.33;16.33;;;;;24.84;45.22;101067.75;5023635;28;45627;-80
2022/08/12 01:14:00;;;;;;;;;18.33;18.33;;;;;24.92;45.36;101087.91;5022866;28;45305;-81
2022/08/12 01:16:35;;;;;;;;;17.00;17.00;;;;;24.87;45.43;101083.19;5036441;28;45820;-83
2022/08/12 01:19:02;;;;;;;;;13.33;13.33;;;;;24.83;45.54;101082.09;5034906;28;45743;-80
2022/08/12 01:21:30;;;;;;;;;22.00;18.00;;;;;24.83;45.52;101093.31;5034514;28;45404;-80
2022/08/12 01:24:21;;;;;;;;;14.00;13.00;;;;;24.82;45.63;101086.88;5034459;28;45380;-79
2022/08/12 01:26:50;;;;;;;;;14.67;14.67;;;;;24.75;45.89;101086.38;5044195;28;47499;-82
2022/08/12 01:29:21;;;;;;;;;14.00;14.00;;;;;24.74;47.01;101095.09;5017335;28;45423;-82
2022/08/12 01:31:50;;;;;;;;;10.67;10.67;;;;;24.69;46.67;101093.19;5029080;28;45626;-82
2022/08/12 01:34:23;;;;;;;;;15.00;15.00;;;;;24.66;47.77;101088.16;5034285;28;45894;-83
2022/08/12 01:36:54;;;;;;;;;24.33;18.67;;;;;24.52;51.90;101075.94;5036370;28;45462;-81
2022/08/12 01:39:28;;;;;;;;;20.00;17.33;;;;;24.46;54.57;101061.13;5023352;28;45795;-82
2022/08/12 01:41:58;;;;;;;;;25.67;23.00;;;;;24.57;56.79;101082.31;5051379;28;45370;-81
2022/08/12 01:44:27;;;;;;;;;25.33;19.67;;;;;24.41;58.16;101069.59;5018031;28;45494;-80
2022/08/12 01:47:15;;;;;;;;;21.67;18.33;;;;;24.49;59.24;101095.03;5015119;28;46364;-79
2022/08/12 01:50:04;;;;;;;;;25.00;22.67;;;;;24.38;60.59;101079.41;5001527;28;45504;-82
2022/08/12 01:52:56;;;;;;;;;17.67;16.33;;;;;24.36;61.50;101087.28;5014166;28;45817;-82
2022/08/12 01:55:33;;;;;;;;;32.00;28.00;;;;;24.11;62.77;101054.72;5016277;28;45655;-84
2022/08/12 01:58:27;;;;;;;;;29.67;27.67;;;;;24.27;62.98;101083.44;5045454;28;47324;-79
2022/08/12 02:01:02;;;;;;;;;34.00;32.33;;;;;24.20;65.49;101089.38;5019313;28;45859;-80
2022/08/12 02:13:09;;;;;;;;;23.33;21.67;;;;;23.98;67.05;101067.41;5017986;28;45572;-83
2022/08/12 02:15:43;;;;;;;;;21.67;18.33;;;;;23.91;67.48;101066.91;5021501;28;45415;-79
2022/08/12 02:18:21;;;;;;;;;23.33;19.33;;;;;23.86;68.59;101059.38;5020170;28;45320;-81
2022/08/12 02:21:36;;;;;;;;;17.33;17.33;;;;;23.70;66.86;101050.22;5034583;28;46946;-83
2022/08/12 02:24:05;;;;;;;;;21.67;20.67;;;;;23.71;65.69;101051.91;5020896;28;45821;-80
2022/08/12 02:26:36;;;;;;;;;30.67;27.00;;;;;23.64;67.77;101042.97;5015067;28;45501;-80
2022/08/12 02:29:02;;;;;;;;;21.67;21.33;;;;;23.74;70.19;101056.06;5005982;28;45887;-79
2022/08/12 02:31:29;;;;;;;;;41.67;33.67;;;;;23.72;70.98;101059.16;5033636;28;46780;-80
2022/08/12 02:33:56;;;;;;;;;39.67;34.33;;;;;23.70;72.53;101064.22;5032052;28;45956;-78
2022/08/12 02:36:22;;;;;;;;;28.33;26.00;;;;;23.47;73.00;101029.34;5048198;28;45791;-79
2022/08/12 02:38:51;;;;;;;;;26.33;24.00;;;;;23.62;73.57;101065.66;5031437;28;45573;-81
2022/08/12 02:41:20;;;;;;;;;27.67;25.33;;;;;23.44;73.52;101033.59;5035936;28;45482;-82
2022/08/12 02:43:50;;;;;;;;;34.67;28.00;;;;;23.54;72.85;101060.66;5036260;28;45769;-80
2022/08/12 02:46:29;;;;;;;;;27.33;26.00;;;;;23.51;73.14;101057.63;5015246;28;45565;-80
2022/08/12 02:49:02;;;;;;;;;17.33;16.33;;;;;23.52;72.90;101071.31;5014937;28;45544;-80
2022/08/12 02:51:38;;;;;;;;;24.33;20.33;;;;;23.27;73.11;101027.50;5014390;28;46540;-80
2022/08/12 02:54:06;;;;;;;;;20.33;18.33;;;;;23.23;71.49;101020.81;5018367;28;45490;-80
2022/08/12 02:56:35;;;;;;;;;16.00;16.00;;;;;23.45;71.05;101060.44;5018415;28;45384;-80
2022/08/12 02:59:00;;;;;;;;;23.00;20.67;;;;;23.44;70.37;101057.91;5030231;28;45559;-82
2022/08/12 03:01:34;;;;;;;;;19.33;19.00;;;;;23.20;69.63;101019.41;5016135;28;45384;-79
2022/08/12 03:04:06;;;;;;;;;18.33;15.33;;;;;23.44;68.33;101060.72;5002538;28;45761;-81
2022/08/12 03:06:38;;;;;;;;;20.67;19.67;;;;;23.30;67.78;101035.31;5011198;28;45826;-78
2022/08/12 03:09:07;;;;;;;;;18.00;16.67;;;;;23.37;69.61;101046.19;5014651;28;45676;-78
2022/08/12 03:12:26;;;;;;;;;21.00;18.67;;;;;23.37;71.68;101047.06;5015495;28;46125;-83
2022/08/12 03:14:46;;;;;;;;;31.67;29.33;;;;;23.44;74.42;101058.78;5017749;28;45413;-81
2022/08/12 03:17:38;;;;;;;;;20.00;17.67;;;;;23.39;75.86;101064.38;5017587;28;45787;-81
2022/08/12 03:20:05;;;;;;;;;23.67;22.33;;;;;23.16;76.05;101031.47;5035996;28;47271;-82
2022/08/12 03:22:32;;;;;;;;;24.00;22.67;;;;;23.18;77.70;101037.63;5025614;28;45576;-81
2022/08/12 03:25:03;;;;;;;;;23.00;20.67;;;;;23.27;78.17;101064.72;5019415;28;45422;-81
2022/08/12 03:27:31;;;;;;;;;21.33;21.00;;;;;23.25;78.98;101069.78;5018984;28;45791;-83
2022/08/12 03:29:58;;;;;;;;;19.33;16.00;;;;;22.98;79.55;101028.19;5000869;28;45920;-81
2022/08/12 03:32:25;;;;;;;;;22.33;17.00;;;;;22.93;80.05;101019.78;5013771;28;48244;-83
2022/08/12 03:34:57;;;;;;;;;23.67;20.00;;;;;23.03;80.29;101039.31;5013824;28;45845;-77
2022/08/12 03:37:25;;;;;;;;;17.00;14.67;;;;;22.96;80.55;101024.81;5013452;28;45433;-79
2022/08/12 03:39:51;;;;;;;;;21.00;19.67;;;;;23.09;81.21;101057.78;5012744;28;45929;-79
2022/08/12 03:42:23;;;;;;;;;21.67;16.67;;;;;23.03;81.62;101064.50;5012815;28;47182;-79
2022/08/12 04:01:51;;;;;;;;;18.00;17.00;;;;;22.74;85.10;101067.94;5027349;28;45509;-77
2022/08/12 04:04:17;;;;;;;;;16.00;14.67;;;;;22.57;85.27;101042.25;5024986;28;45810;-79
2022/08/12 04:06:44;;;;;;;;;20.67;16.67;;;;;22.54;86.04;101052.03;5028738;28;45410;-79
2022/08/12 04:09:11;;;;;;;;;19.33;18.00;;;;;22.60;86.51;101061.25;5033760;28;45846;-78
2022/08/12 04:14:26;;;;;;;;;16.67;15.33;;;;;22.37;87.23;101035.59;5005972;28;45371;-80
2022/08/12 04:16:52;;;;;;;;;17.67;16.00;;;;;22.48;87.45;101057.94;5010976;28;45654;-79
2022/08/12 04:19:18;;;;;;;;;18.67;15.67;;;;;22.44;87.89;101060.47;5024428;28;45615;-80
2022/08/12 04:21:45;;;;;;;;;16.33;16.00;;;;;22.36;88.39;101047.03;5026647;28;45420;-80
2022/08/12 04:24:12;;;;;;;;;15.00;14.33;;;;;22.35;88.91;101056.53;5025071;28;46015;-77
2022/08/12 04:26:38;;;;;;;;;15.00;12.67;;;;;22.25;89.21;101048.16;5013207;28;45711;-78
2022/08/12 04:29:04;;;;;;;;;16.67;14.33;;;;;22.32;89.46;101063.53;5024332;28;45473;-79
2022/08/12 04:31:30;;;;;;;;;17.67;16.33;;;;;22.30;90.07;101062.94;5032684;28;45983;-80
2022/08/12 04:33:59;;;;;;;;;20.00;16.67;;;;;22.25;90.17;101059.34;5032764;28;45702;-78
2022/08/12 04:36:25;;;;;;;;;20.00;17.67;;;;;22.28;90.32;101054.00;4999977;28;45581;-78
2022/08/12 04:38:53;;;;;;;;;17.33;17.33;;;;;22.27;90.52;101068.25;5026216;28;45462;-79
2022/08/12 04:41:20;;;;;;;;;26.67;25.67;;;;;22.09;90.97;101033.34;5032139;28;45961;-78
2022/08/12 04:43:47;;;;;;;;;18.67;18.33;;;;;22.27;90.66;101060.69;5031298;28;45505;-77
2022/08/12 04:46:13;;;;;;;;;16.00;16.00;;;;;22.08;90.38;101026.06;5020232;28;45944;-77
2022/08/12 04:48:38;;;;;;;;;16.33;16.33;;;;;22.33;90.44;101048.44;5032081;28;45553;-78
2022/08/12 04:51:05;;;;;;;;;17.33;16.33;;;;;22.48;89.66;101047.56;5024215;28;45976;-78
2022/08/12 04:53:32;;;;;;;;;24.00;22.00;;;;;22.68;89.23;101063.50;5025019;28;47027;-78
2022/08/12 04:55:59;;;;;;;;;20.33;18.67;;;;;22.79;87.97;101046.69;5024306;28;46051;-79
2022/08/12 04:58:25;;;;;;;;;17.67;16.67;;;;;23.06;86.34;101041.56;5012606;28;45320;-83
2022/08/12 05:00:50;;;;;;;;;19.33;19.33;;;;;23.45;84.53;101043.63;5019558;28;45574;-79
2022/08/12 05:03:16;;;;;;;;;19.67;17.00;;;;;23.88;82.45;101067.50;5026737;28;46555;-79
2022/08/12 05:05:42;;;;;;;;;17.33;15.67;;;;;24.28;79.40;101069.16;5020630;28;45691;-79
2022/08/12 05:08:17;;;;;;;;;39.33;32.67;;;;;24.53;76.56;101043.97;5036911;28;45580;-84
2022/08/12 05:10:47;;;;;;;;;17.00;16.33;;;;;25.14;73.12;101070.53;5040123;28;45747;-82
2022/08/12 05:13:17;;;;;;;;;17.00;16.33;;;;;25.64;70.12;101070.97;5032683;28;46288;-83
2022/08/12 05:15:44;;;;;;;;;17.67;14.67;;;;;25.98;66.86;101041.00;5023877;28;46860;-78
2022/08/12 05:18:10;;;;;;;;;15.67;15.00;;;;;26.63;63.43;101070.25;5015049;28;45480;-79
2022/08/12 05:20:36;;;;;;;;;15.67;15.33;;;;;27.02;60.60;101064.19;5013228;28;45561;-82
2022/08/12 05:23:07;;;;;;;;;16.67;15.33;;;;;27.36;57.80;101048.03;5019626;28;46208;-83
2022/08/12 05:25:32;;;;;;;;;21.00;17.33;;;;;28.05;55.09;101075.19;5018686;28;45509;-83
2022/08/12 05:27:59;;;;;;;;;20.67;17.33;;;;;28.53;53.40;101083.00;5017107;28;45440;-82
2022/08/12 05:30:29;;;;;;;;;22.33;21.00;;;;;28.80;51.34;101062.22;5022123;28;45844;-82
2022/08/12 05:32:56;;;;;;;;;20.00;17.33;;;;;29.41;49.32;101067.28;5018134;28;47176;-83
2022/08/12 05:35:22;;;;;;;;;21.00;18.33;;;;;30.09;47.38;101084.69;5019171;28;45359;-80
2022/08/12 05:38:54;;;;;;;;;15.67;15.00;;;;;30.54;45.32;101071.31;5015446;28;45808;-77
2022/08/12 05:40:35;;;;;;;;;13.33;13.00;;;;;31.26;43.70;101088.53;5018776;28;45462;-82
2022/08/12 05:43:01;;;;;;;;;14.67;13.33;;;;;31.71;41.64;101059.59;5017726;28;46985;-80
2022/08/12 05:45:27;;;;;;;;;12.33;12.33;;;;;32.26;40.88;101076.66;5016007;28;45476;-79
2022/08/12 05:47:52;;;;;;;;;14.67;14.67;;;;;32.83;39.31;101075.88;5013897;28;45397;-79
2022/08/12 05:50:18;;;;;;;;;15.33;13.33;;;;;33.30;37.09;101073.81;5018909;28;45676;-79
2022/08/12 05:52:44;;;;;;;;;16.33;15.67;;;;;33.75;36.21;101082.16;5027369;28;46569;-82
2022/08/12 05:55:10;;;;;;;;;15.33;15.33;;;;;34.20;35.44;101088.75;5020734;28;45237;-82
2022/08/12 05:57:35;;;;;;;;;18.67;16.67;;;;;34.57;34.23;101073.50;5019620;28;45904;-83
2022/08/12 06:00:02;;;;;;;;;16.67;15.67;;;;;35.05;32.98;101094.34;5030573;28;46610;-82
2022/08/12 06:02:28;;;;;;;;;15.33;15.33;;;;;35.41;32.17;101080.19;5018263;28;45428;-81
2022/08/12 06:04:53;;;;;;;;;17.00;17.00;;;;;35.92;31.74;101090.72;5018668;28;45502;-82
2022/08/12 06:07:18;;;;;;;;;14.00;14.00;;;;;36.31;29.76;101082.16;5018575;28;45871;-80
2022/08/12 06:09:44;;;;;;;;;16.33;14.33;;;;;36.66;30.28;101090.56;5016476;28;46048;-79
2022/08/12 06:12:10;;;;;;;;;20.33;18.67;;;;;36.95;29.71;101079.69;5033337;28;46382;-80
2022/08/12 06:14:36;;;;;;;;;15.00;14.33;;;;;37.43;29.14;101076.41;5033351;28;45390;-80
2022/08/12 06:17:03;;;;;;;;;18.00;14.33;;;;;37.99;25.96;101060.41;5014093;28;45358;-78
2022/08/12 06:19:30;;;;;;;;;14.67;13.67;;;;;38.60;24.86;101088.94;5014901;28;45405;-79
2022/08/12 06:21:56;;;;;;;;;15.67;15.00;;;;;38.63;24.02;101050.88;5029105;28;45397;-78
2022/08/12 06:24:23;;;;;;;;;16.67;15.33;;;;;38.95;23.91;101090.53;5033493;28;45440;-80
2022/08/12 06:26:50;;;;;;;;;15.33;14.00;;;;;38.91;23.82;101067.56;5031831;28;45766;-80
2022/08/12 06:29:18;;;;;;;;;13.00;10.33;;;;;39.07;23.34;101087.34;5019763;28;45893;-81
2022/08/12 06:31:50;;;;;;;;;14.00;12.33;;;;;39.06;23.25;101073.38;5014360;28;45806;-83
2022/08/12 06:34:17;;;;;;;;;19.00;13.67;;;;;39.18;23.79;101076.81;5018805;28;45693;-82
2022/08/12 06:36:44;;;;;;;;;11.67;10.33;;;;;39.41;23.18;101087.22;5033121;28;45934;-83
2022/08/12 06:39:12;;;;;;;;;15.33;13.67;;;;;39.38;22.70;101067.91;5017998;28;45290;-82
2022/08/12 06:44:28;;;;;;;;;12.00;11.33;;;;;39.40;22.70;101082.69;5015579;28;45399;-79
2022/08/12 06:46:57;;;;;;;;;9.67;9.67;;;;;39.64;22.16;101097.63;5015483;28;45372;-79
2022/08/12 06:49:22;;;;;;;;;12.33;12.33;;;;;39.70;21.68;101079.63;5028198;28;47004;-79
2022/08/12 06:51:48;;;;;;;;;11.33;10.33;;;;;39.85;22.10;101063.28;5019297;28;45631;-79
2022/08/12 06:54:14;;;;;;;;;14.00;13.00;;;;;40.19;21.24;101070.81;5025026;28;45397;-82
2022/08/12 06:56:39;;;;;;;;;12.67;12.33;;;;;40.27;21.72;101068.78;5021875;28;45817;-80
2022/08/12 06:59:08;;;;;;;;;11.33;10.33;;;;;40.50;21.36;101082.81;5035267;28;45707;-78
2022/08/12 07:01:35;;;;;;;;;10.67;10.67;;;;;40.68;21.06;101083.66;5036264;28;47001;-82
2022/08/12 07:04:00;;;;;;;;;13.67;11.33;;;;;40.73;20.86;101076.69;5047251;28;45748;-82
2022/08/12 07:06:28;;;;;;;;;13.00;11.33;;;;;41.00;20.74;101084.94;5019907;28;45798;-82
2022/08/12 07:08:54;;;;;;;;;11.33;11.33;;;;;41.03;20.43;101058.22;5017735;28;45657;-82
2022/08/12 07:11:20;;;;;;;;;11.00;11.00;;;;;41.43;20.17;101065.59;5018367;28;46250;-78
2022/08/12 07:13:49;;;;;;;;;11.67;11.67;;;;;41.53;19.95;101052.41;5029666;28;45431;-82
2022/08/12 07:16:17;;;;;;;;;13.00;12.00;;;;;41.82;19.66;101072.50;5018588;28;45713;-81
2022/08/12 07:18:46;;;;;;;;;12.67;11.67;;;;;41.99;19.38;101062.97;5024579;28;45828;-83
2022/08/12 07:21:13;;;;;;;;;13.00;9.00;;;;;42.20;19.21;101066.97;5053890;28;46862;-81
2022/08/12 07:23:40;;;;;;;;;10.67;8.00;;;;;42.23;19.03;101059.56;5035197;28;45783;-83
2022/08/12 07:26:10;;;;;;;;;10.67;10.33;;;;;42.40;18.73;101072.19;5029303;28;45487;-82
2022/08/12 07:28:40;;;;;;;;;16.00;12.00;;;;;42.60;19.00;101061.78;5037288;28;46938;-85
2022/08/12 07:31:08;;;;;;;;;11.67;11.67;;;;;42.80;18.77;101061.22;5038078;28;45960;-81
2022/08/12 07:33:37;;;;;;;;;10.33;10.00;;;;;42.76;18.21;101066.19;5040886;28;45505;-83
2022/08/12 07:36:09;;;;;;;;;10.33;9.67;;;;;42.59;18.32;101056.44;5054199;28;45732;-80
2022/08/12 07:38:43;;;;;;;;;12.00;10.33;;;;;42.50;18.57;101059.78;5030177;28;45382;-81
2022/08/12 07:41:12;;;;;;;;;12.33;10.67;;;;;42.45;18.35;101055.28;5016533;28;47122;-82
2022/08/12 07:43:41;;;;;;;;;9.67;8.33;;;;;42.57;18.28;101045.31;5030925;28;45364;-80
2022/08/12 07:46:10;;;;;;;;;10.33;10.00;;;;;42.71;17.92;101060.91;5016879;28;44848;-83
2022/08/12 07:48:52;;;;;;;;;12.67;10.00;;;;;42.66;18.17;101050.63;5019392;28;45540;-81
2022/08/12 07:51:20;;;;;;;;;12.00;11.00;;;;;42.60;17.71;101047.38;5014522;28;45522;-84
2022/08/12 07:53:46;;;;;;;;;8.67;7.67;;;;;42.36;17.59;101037.63;5016057;28;45338;-82
2022/08/12 07:56:11;;;;;;;;;10.00;8.67;;;;;42.37;18.46;101044.22;5018079;28;45783;-81
2022/08/12 07:58:39;;;;;;;;;12.00;8.67;;;;;42.80;17.79;101049.69;5016516;28;45762;-81
2022/08/12 08:01:09;;;;;;;;;13.67;11.67;;;;;43.00;17.69;101059.44;5016890;28;45317;-82
2022/08/12 08:04:54;;;;;;;;;10.33;10.33;;;;;43.14;17.79;101064.25;5018967;28;45584;-83
2022/08/12 08:06:24;;;;;;;;;13.33;13.33;;;;;43.42;17.72;101047.06;5017668;28;45356;-84
2022/08/12 08:08:49;;;;;;;;;9.00;9.00;;;;;43.60;16.78;101052.63;5017399;28;45453;-81
2022/08/12 08:14:03;;;;;;;;;14.00;10.00;;;;;43.68;17.09;101043.44;5018446;28;45423;-82
2022/08/12 08:16:28;;;;;;;;;8.33;8.33;;;;;43.86;16.66;101036.66;5035248;28;45433;-81
2022/08/12 08:18:58;;;;;;;;;11.67;9.67;;;;;43.28;17.28;101051.72;5035103;28;45777;-81
2022/08/12 08:21:28;;;;;;;;;9.33;8.33;;;;;41.90;17.98;101039.50;5036434;28;46292;-81
2022/08/12 08:26:38;;;;;;;;;10.00;9.33;;;;;39.22;19.98;101047.31;5017536;28;45427;-81
2022/08/12 08:29:04;;;;;;;;;9.00;9.00;;;;;38.05;20.29;101060.88;5016131;28;45391;-82
2022/08/12 08:31:30;;;;;;;;;9.00;9.00;;;;;36.88;21.20;101059.56;5015665;28;47078;-83
2022/08/12 08:33:55;;;;;;;;;8.00;8.00;;;;;36.60;21.12;101063.53;5015190;28;45431;-81
2022/08/12 08:36:22;;;;;;;;;9.33;9.33;;;;;37.41;20.86;101071.06;5005804;28;45780;-82
2022/08/12 08:38:48;;;;;;;;;8.00;8.00;;;;;38.08;20.03;101026.53;5017413;28;44816;-82
2022/08/12 08:44:00;;;;;;;;;10.67;9.33;;;;;39.94;18.87;101030.47;5016399;28;45702;-83
2022/08/12 08:46:26;;;;;;;;;9.00;9.00;;;;;40.61;18.33;101043.41;5016732;28;45677;-81
2022/08/12 08:48:52;;;;;;;;;7.67;7.67;;;;;41.28;17.47;101038.06;5014648;28;46356;-80
2022/08/12 08:51:18;;;;;;;;;7.33;5.67;;;;;41.63;17.19;101022.72;5013944;28;46979;-81
2022/08/12 08:53:44;;;;;;;;;7.33;7.00;;;;;41.88;17.00;101018.16;5016738;28;45422;-81
2022/08/12 08:56:10;;;;;;;;;7.00;7.00;;;;;42.62;16.73;101065.06;5016020;28;45408;-81
2022/08/12 08:58:41;;;;;;;;;8.00;8.00;;;;;42.89;16.12;101018.28;5015751;28;46919;-83
2022/08/12 09:01:07;;;;;;;;;8.00;6.67;;;;;43.63;15.80;101060.44;5016109;28;46200;-82
2022/08/12 09:03:32;;;;;;;;;7.00;6.67;;;;;44.02;16.12;101050.47;5017152;28;45396;-83
2022/08/12 09:06:01;;;;;;;;;7.67;7.67;;;;;44.68;15.34;101062.75;5018913;28;45316;-82
2022/08/12 09:08:28;;;;;;;;;7.33;7.33;;;;;44.79;15.11;101077.84;5018699;28;45672;-82
2022/08/12 09:13:26;;;;;;;;;7.67;7.67;;;;;44.93;14.91;101045.78;5019447;28;45424;-81
2022/08/12 09:13:43;;;;;;;;;8.67;8.00;;;;;45.35;14.67;101036.75;5020589;28;45787;-83
2022/08/12 09:16:08;;;;;;;;;9.00;7.33;;;;;45.99;14.71;101045.38;5019908;28;45787;-82
2022/08/12 09:18:34;;;;;;;;;6.33;6.33;;;;;46.18;13.91;101000.22;5017312;28;46110;-82
2022/08/12 09:21:00;;;;;;;;;10.00;8.00;;;;;46.59;13.40;101030.75;5032949;28;46604;-82
2022/08/12 09:23:26;;;;;;;;;5.67;5.67;;;;;47.13;13.59;101069.19;5028034;28;47892;-83
2022/08/12 09:25:52;;;;;;;;;6.67;6.67;;;;;46.78;13.52;101004.97;5019345;28;45740;-83
2022/08/12 09:28:19;;;;;;;;;6.67;6.67;;;;;46.65;13.68;101042.63;5023433;28;45498;-82
2022/08/12 09:30:47;;;;;;;;;6.00;6.00;;;;;46.36;13.50;101046.22;5018534;28;45420;-82
2022/08/12 09:33:16;;;;;;;;;7.00;7.00;;;;;46.04;13.24;101036.16;5018549;28;45565;-81
2022/08/12 09:35:45;;;;;;;;;6.00;6.00;;;;;45.69;13.37;101029.06;5017902;28;45832;-82
2022/08/12 09:38:16;;;;;;;;;6.33;6.33;;;;;45.60;14.08;101047.84;5016165;28;46268;-82
2022/08/12 09:40:42;;;;;;;;;5.00;5.00;;;;;45.61;13.75;101043.69;5007879;28;45459;-83
2022/08/12 09:45:58;;;;;;;;;6.67;6.67;;;;;45.69;13.97;101029.84;5018001;28;45418;-81
2022/08/12 09:48:25;;;;;;;;;6.33;6.33;;;;;45.62;13.56;101021.34;5020348;28;45360;-82
2022/08/12 09:50:51;;;;;;;;;6.33;6.33;;;;;45.38;13.67;101044.56;5017371;28;48698;-82
2022/08/12 09:53:22;;;;;;;;;7.00;7.00;;;;;45.25;13.88;101018.31;5018504;28;45455;-82
2022/08/12 09:55:51;;;;;;;;;5.67;5.33;;;;;45.09;13.84;101016.13;5035732;28;45531;-83
2022/08/12 09:58:17;;;;;;;;;6.00;6.00;;;;;44.98;14.00;101020.50;5021248;28;45735;-82
2022/08/12 10:00:46;;;;;;;;;6.00;6.00;;;;;44.70;14.11;101017.66;5017136;28;48481;-82
2022/08/12 10:03:15;;;;;;;;;5.67;5.67;;;;;44.59;14.49;101034.34;5039743;28;45931;-82
2022/08/12 10:05:43;;;;;;;;;8.00;7.00;;;;;44.72;14.20;101012.25;5018183;28;45567;-79
2022/08/12 10:08:12;;;;;;;;;6.00;6.00;;;;;44.27;14.27;100974.13;5023865;28;45451;-80
2022/08/12 10:13:40;;;;;;;;;8.67;8.00;;;;;44.52;14.08;101020.81;5035782;28;45470;-81
2022/08/12 10:13:40;;;;;;;;;6.00;6.00;;;;;44.42;14.48;101002.41;5035914;28;45861;-80
2022/08/12 10:16:17;;;;;;;;;6.67;5.00;;;;;44.48;14.32;100988.25;5035689;28;45407;-80
2022/08/12 10:19:04;;;;;;;;;5.33;5.33;;;;;44.46;13.99;100990.75;5033778;28;45887;-81
2022/08/12 10:21:35;;;;;;;;;6.00;6.00;;;;;44.25;14.50;101003.50;5024325;28;46171;-80
2022/08/12 10:24:09;;;;;;;;;6.67;5.67;;;;;44.26;14.21;100996.47;5033958;28;45606;-80
2022/08/12 10:29:43;;;;;;;;;5.00;5.00;;;;;44.65;13.90;100979.75;5026703;28;45866;-80
2022/08/12 10:32:11;;;;;;;;;4.00;4.00;;;;;44.12;13.70;100948.31;5015434;28;45772;-80
2022/08/12 10:34:38;;;;;;;;;7.00;5.00;;;;;44.38;13.78;100949.56;5015439;28;45399;-81
2022/08/12 10:37:05;;;;;;;;;7.00;5.00;;;;;44.47;14.26;100951.09;5015828;28;45508;-79
2022/08/12 10:39:34;;;;;;;;;7.67;6.67;;;;;44.74;13.82;100968.41;5014229;28;45930;-80
2022/08/12 10:44:59;;;;;;;;;5.00;5.00;;;;;44.67;13.39;100954.88;5016219;28;45854;-80
2022/08/12 10:47:29;;;;;;;;;6.33;6.33;;;;;45.01;13.36;100974.09;5014385;28;45709;-80
2022/08/12 10:49:55;;;;;;;;;3.67;3.67;;;;;44.98;13.40;100988.66;5016294;28;45858;-81
2022/08/12 10:52:24;;;;;;;;;3.33;3.00;;;;;44.56;14.18;100983.16;5017355;28;48331;-81
2022/08/12 10:54:54;;;;;;;;;8.00;7.00;;;;;44.34;13.84;100985.59;5016618;28;45449;-80
2022/08/12 10:57:20;;;;;;;;;6.67;6.67;;;;;44.05;13.94;100972.38;5014718;28;45443;-80
2022/08/12 10:59:46;;;;;;;;;9.00;7.00;;;;;43.52;14.23;100927.72;5013092;28;46185;-79
2022/08/12 11:02:13;;;;;;;;;5.00;5.00;;;;;43.46;14.58;100964.91;5015315;28;45537;-80
2022/08/12 11:04:39;;;;;;;;;6.33;6.33;;;;;42.88;14.55;100964.72;5015636;28;45448;-81
2022/08/12 11:07:06;;;;;;;;;8.00;6.00;;;;;42.15;14.82;100946.34;5016608;28;45445;-82
2022/08/12 11:09:36;;;;;;;;;7.00;7.00;;;;;41.64;15.24;100926.47;5013247;28;45632;-79
2022/08/12 11:12:06;;;;;;;;;5.00;5.00;;;;;41.19;15.93;100923.38;5015002;28;47310;-80
2022/08/12 11:14:33;;;;;;;;;6.67;6.67;;;;;40.87;16.20;100958.78;5015043;28;45415;-81
2022/08/12 11:17:07;;;;;;;;;6.33;6.33;;;;;40.29;16.36;100916.88;5014974;28;45396;-80
2022/08/12 11:19:35;;;;;;;;;8.33;7.00;;;;;39.98;17.38;100919.31;5016133;28;45510;-81
2022/08/12 11:22:02;;;;;;;;;7.67;7.00;;;;;39.82;16.67;100894.63;5017861;28;46366;-85
2022/08/12 11:24:28;;;;;;;;;5.33;5.33;;;;;39.92;17.46;100915.19;5018449;28;45523;-80
2022/08/12 11:26:54;;;;;;;;;5.00;5.00;;;;;39.74;16.82;100907.34;5015860;28;45297;-81
2022/08/12 11:29:23;;;;;;;;;6.00;6.00;;;;;39.15;17.31;100930.47;5014061;28;45832;-80
2022/08/12 11:31:49;;;;;;;;;6.67;6.67;;;;;38.52;17.81;100936.13;5019516;28;45432;-82
2022/08/12 11:34:20;;;;;;;;;6.67;6.67;;;;;38.18;18.00;100924.81;5008549;28;45768;-82
2022/08/12 11:37:10;;;;;;;;;5.33;5.33;;;;;37.68;18.06;100912.78;5014393;28;44800;-83
2022/08/12 11:39:36;;;;;;;;;11.33;11.00;;;;;37.31;18.31;100897.22;5022533;28;45510;-79
2022/08/12 11:42:01;;;;;;;;;5.33;5.33;;;;;36.88;18.36;100896.63;5026037;28;46830;-83
2022/08/12 11:44:28;;;;;;;;;7.33;7.33;;;;;36.62;18.68;100915.38;5025940;28;45555;-80
2022/08/12 11:46:53;;;;;;;;;5.00;5.00;;;;;36.12;19.42;100872.50;5033298;28;45723;-80
2022/08/12 11:49:26;;;;;;;;;5.00;5.00;;;;;35.93;19.84;100896.25;5032198;28;45703;-79
2022/08/12 11:51:52;;;;;;;;;5.33;5.33;;;;;35.74;19.84;100901.97;5023585;28;46494;-84
2022/08/12 11:54:18;;;;;;;;;5.33;5.33;;;;;35.43;20.28;100876.06;5034122;28;45403;-81
2022/08/12 11:56:43;;;;;;;;;7.67;6.33;;;;;35.18;20.32;100872.69;5029540;28;45634;-81
2022/08/12 11:59:09;;;;;;;;;7.00;7.00;;;;;34.87;20.18;100870.78;5014028;28;45693;-81
2022/08/12 12:01:35;;;;;;;;;6.00;6.00;;;;;34.64;20.94;100874.28;5012805;28;47809;-83
2022/08/12 12:04:02;;;;;;;;;7.00;7.00;;;;;34.54;20.88;100891.94;5027641;28;45553;-81
2022/08/12 12:06:28;;;;;;;;;6.67;6.00;;;;;34.40;21.03;100892.44;5014818;28;45442;-81
2022/08/12 12:08:54;;;;;;;;;5.00;5.00;;;;;33.99;21.21;100851.94;5002863;28;45548;-81
2022/08/12 12:11:20;;;;;;;;;7.00;7.00;;;;;33.56;21.75;100823.13;5026893;28;46814;-83
2022/08/12 12:13:51;;;;;;;;;7.00;6.00;;;;;33.56;22.04;100849.53;5031336;28;45412;-84
2022/08/12 12:16:18;;;;;;;;;5.00;5.00;;;;;33.57;21.90;100893.03;5017707;28;45494;-83
2022/08/12 12:18:45;;;;;;;;;6.00;6.00;;;;;33.15;22.57;100851.59;5014405;28;45557;-83
2022/08/12 12:21:10;;;;;;;;;6.00;6.00;;;;;32.96;22.21;100837.22;5016110;28;45983;-82
2022/08/12 12:23:36;;;;;;;;;5.00;5.00;;;;;33.13;22.46;100862.53;5012182;28;45480;-83
2022/08/12 12:26:04;;;;;;;;;7.00;7.00;;;;;32.90;22.12;100840.31;5003850;28;45405;-83
2022/08/12 12:28:32;;;;;;;;;8.33;7.00;;;;;32.88;22.38;100851.22;5013175;28;45452;-81
2022/08/12 12:30:57;;;;;;;;;5.67;5.33;;;;;32.82;21.69;100854.66;5015736;28;45497;-81
2022/08/12 12:33:23;;;;;;;;;7.00;7.00;;;;;32.80;22.31;100859.88;5018311;28;45872;-82
2022/08/12 12:35:48;;;;;;;;;8.00;7.00;;;;;32.58;22.73;100827.94;5019517;28;45452;-82
2022/08/12 12:38:15;;;;;;;;;7.33;6.33;;;;;32.82;22.60;100878.22;5026760;28;45803;-83
2022/08/12 12:40:43;;;;;;;;;7.33;6.33;;;;;32.75;22.25;100855.25;5043109;28;46172;-83
2022/08/12 12:43:09;;;;;;;;;5.33;5.00;;;;;32.67;22.38;100850.56;5029054;28;45604;-83
2022/08/12 12:45:36;;;;;;;;;6.00;5.67;;;;;32.75;22.49;100868.66;5015655;28;44938;-80
2022/08/12 12:48:04;;;;;;;;;7.00;7.00;;;;;32.66;22.57;100857.41;5025079;28;45943;-81
2022/08/12 12:50:38;;;;;;;;;6.00;6.00;;;;;32.78;22.44;100846.03;5028115;28;45925;-81
2022/08/12 12:53:05;;;;;;;;;5.67;5.67;;;;;32.76;23.16;100842.72;5014194;28;45770;-81
2022/08/12 12:55:35;;;;;;;;;4.67;4.67;;;;;32.78;22.51;100845.22;5031401;28;45486;-80
2022/08/12 12:58:03;;;;;;;;;6.00;5.00;;;;;32.63;22.65;100819.16;5031962;28;45564;-81
2022/08/12 13:00:30;;;;;;;;;6.00;6.00;;;;;32.91;22.47;100850.50;5035850;28;47974;-81
2022/08/12 13:02:55;;;;;;;;;6.00;6.00;;;;;32.89;22.13;100847.19;5020896;28;45866;-80
2022/08/12 13:05:24;;;;;;;;;6.67;5.00;;;;;32.94;22.62;100853.81;5014498;28;45466;-80